createdAt,value
2024-03-02T00:00:21.409Z,7.65
2024-03-02T00:05:23.305Z,7.35
2024-03-02T00:10:37.348Z,6.95
2024-03-02T00:15:42.157Z,7.65
2024-03-02T00:20:43.684Z,7.47
2024-03-02T00:25:46.157Z,6.90
2024-03-02T00:30:52.823Z,6.90
2024-03-02T00:35:54.414Z,6.85
2024-03-02T00:40:59.033Z,6.43
2024-03-02T00:46:00.543Z,5.97
2024-03-02T00:51:02.142Z,5.72
2024-03-02T00:56:03.718Z,6.03
2024-03-02T01:01:05.391Z,5.68
2024-03-02T01:06:06.973Z,6.30
2024-03-02T01:11:08.555Z,6.10
2024-03-02T01:16:10.100Z,6.15
2024-03-02T01:21:11.599Z,6.25
2024-03-02T01:26:13.060Z,7.15
2024-03-02T01:31:14.526Z,6.32
2024-03-02T01:36:16.025Z,6.90
2024-03-02T01:41:17.577Z,6.35
2024-03-02T01:46:19.040Z,6.85
2024-03-02T01:51:20.549Z,6.45
2024-03-02T01:56:22.101Z,6.93
2024-03-02T02:01:24.609Z,6.60
2024-03-02T02:06:26.196Z,7.95
2024-03-02T02:11:27.733Z,7.30
2024-03-02T02:16:29.255Z,7.07
2024-03-02T02:21:30.775Z,6.60
2024-03-02T02:26:32.251Z,6.45
2024-03-02T02:31:39.912Z,6.20
2024-03-02T02:36:41.482Z,6.55
2024-03-02T02:41:43.076Z,5.72
2024-03-02T02:46:44.546Z,6.07
2024-03-02T02:51:46.061Z,6.30
2024-03-02T02:56:47.564Z,5.82
2024-03-02T03:01:49.103Z,6.18
2024-03-02T03:06:50.757Z,6.43
2024-03-02T03:11:52.373Z,6.10
2024-03-02T03:16:53.913Z,6.18
2024-03-02T03:21:55.425Z,5.70
2024-03-02T03:26:56.912Z,6.75
2024-03-02T03:31:58.390Z,5.72
2024-03-02T03:36:59.922Z,7.10
2024-03-02T03:42:02.241Z,6.65
2024-03-02T03:47:03.732Z,5.90
2024-03-02T03:52:05.502Z,6.07
2024-03-02T03:57:07.037Z,7.35
2024-03-02T04:02:08.508Z,6.88
2024-03-02T04:07:10.014Z,6.75
2024-03-02T04:12:11.515Z,6.47
2024-03-02T04:17:13.008Z,7.47
2024-03-02T04:22:18.812Z,6.93
2024-03-02T04:27:26.468Z,8.50
2024-03-02T04:32:28.367Z,7.10
2024-03-02T04:37:29.906Z,23.75
2024-03-02T04:42:31.482Z,7.68
2024-03-02T04:47:32.951Z,8.13
2024-03-02T04:52:34.433Z,6.72
2024-03-02T04:57:35.963Z,6.97
2024-03-02T05:02:37.553Z,7.63
2024-03-02T05:07:39.039Z,6.93
2024-03-02T05:12:40.578Z,7.07
2024-03-02T05:17:42.832Z,6.95
2024-03-02T05:22:44.451Z,7.13
2024-03-02T05:27:46.041Z,6.93
2024-03-02T05:32:47.548Z,7.15
2024-03-02T05:37:49.021Z,7.32
2024-03-02T05:42:50.580Z,7.53
2024-03-02T05:47:52.111Z,6.57
2024-03-02T05:52:53.630Z,6.60
2024-03-02T05:57:55.219Z,6.47
2024-03-02T06:02:56.755Z,7.50
2024-03-02T06:07:58.245Z,7.70
2024-03-02T06:12:59.856Z,7.45
2024-03-02T06:18:01.424Z,7.00
2024-03-02T06:23:02.933Z,7.50
2024-03-02T06:28:04.612Z,7.75
2024-03-02T06:33:06.111Z,7.38
2024-03-02T06:38:07.591Z,7.78
2024-03-02T06:43:09.166Z,7.95
2024-03-02T06:48:10.842Z,7.65
2024-03-02T06:53:12.337Z,8.38
2024-03-02T06:58:14.426Z,8.48
2024-03-02T07:03:15.896Z,8.40
2024-03-02T07:08:17.402Z,7.38
2024-03-02T07:13:18.890Z,7.90
2024-03-02T07:18:20.405Z,7.95
2024-03-02T07:23:21.887Z,8.85
2024-03-02T07:28:24.019Z,8.32
2024-03-02T07:33:25.501Z,8.82
2024-03-02T07:38:27.175Z,9.45
2024-03-02T07:43:29.025Z,8.60
2024-03-02T07:48:30.764Z,9.48
2024-03-02T07:53:32.502Z,9.60
2024-03-02T07:58:34.152Z,8.60
2024-03-02T08:03:35.795Z,9.23
2024-03-02T08:08:37.358Z,9.38
2024-03-02T08:13:39.219Z,8.93
2024-03-02T08:18:40.808Z,8.48
2024-03-02T08:23:44.715Z,7.78
2024-03-02T08:28:46.379Z,8.90
2024-03-02T08:33:47.950Z,7.78
2024-03-02T08:38:50.207Z,8.73
2024-03-02T08:43:51.799Z,7.72
2024-03-02T08:48:53.425Z,8.13
2024-03-02T08:53:54.994Z,6.90
2024-03-02T08:58:56.452Z,6.85
2024-03-02T09:03:58.055Z,6.38
2024-03-02T09:08:59.664Z,6.32
2024-03-02T09:14:01.139Z,5.75
2024-03-02T09:19:02.791Z,6.40
2024-03-02T09:24:04.788Z,6.03
2024-03-02T09:29:06.301Z,5.40
2024-03-02T09:34:07.946Z,5.30
2024-03-02T09:39:09.693Z,5.97
2024-03-02T09:44:11.726Z,5.03
2024-03-02T09:49:13.693Z,5.57
2024-03-02T09:54:22.217Z,4.63
2024-03-02T09:59:24.926Z,4.90
2024-03-02T10:04:30.282Z,4.63
2024-03-02T10:09:31.968Z,4.55
2024-03-02T10:14:33.507Z,4.10
2024-03-02T10:19:39.175Z,4.32
2024-03-02T10:24:40.795Z,3.95
2024-03-02T10:29:42.518Z,4.50
2024-03-02T10:34:45.408Z,3.80
2024-03-02T10:39:47.444Z,3.38
2024-03-02T10:44:50.110Z,3.35
2024-03-02T10:49:52.289Z,2.85
2024-03-02T10:54:53.922Z,3.05
2024-03-02T10:59:57.882Z,3.30
2024-03-02T11:05:01.295Z,2.53
2024-03-02T11:10:04.719Z,3.10
2024-03-02T11:15:11.070Z,3.15
2024-03-02T11:20:12.996Z,3.67
2024-03-02T11:25:27.426Z,3.50
2024-03-02T11:30:35.671Z,4.00
2024-03-02T11:35:38.323Z,3.43
2024-03-02T11:40:42.916Z,3.70
2024-03-02T11:45:45.262Z,3.85
2024-03-02T11:50:51.613Z,3.30
2024-03-02T11:55:53.772Z,3.60
2024-03-02T12:00:55.770Z,3.75
2024-03-02T12:05:57.394Z,3.75
2024-03-02T12:11:00.224Z,3.75
2024-03-02T12:16:01.903Z,3.58
2024-03-02T12:21:03.658Z,3.60
2024-03-02T12:26:05.478Z,4.13
2024-03-02T12:31:07.099Z,3.75
2024-03-02T12:36:11.828Z,3.45
2024-03-02T12:41:16.156Z,3.33
2024-03-02T12:46:17.903Z,3.20
2024-03-02T12:51:19.422Z,2.97
2024-03-02T12:56:20.993Z,3.40
2024-03-02T13:01:22.734Z,2.70
2024-03-02T13:06:24.911Z,3.17
2024-03-02T13:11:26.652Z,2.60
2024-03-02T13:16:32.858Z,2.30
2024-03-02T13:21:38.378Z,3.63
2024-03-02T13:26:39.855Z,3.05
2024-03-02T13:31:41.308Z,3.08
2024-03-02T13:36:42.823Z,3.25
2024-03-02T13:41:44.875Z,3.25
2024-03-02T13:46:47.046Z,4.25
2024-03-02T13:51:48.561Z,3.13
2024-03-02T13:56:50.127Z,3.45
2024-03-02T14:01:51.760Z,3.08
2024-03-02T14:06:53.282Z,2.83
2024-03-02T14:11:55.168Z,4.30
2024-03-02T14:16:56.790Z,3.90
2024-03-02T14:21:58.337Z,5.75
2024-03-02T14:27:06.136Z,4.45
2024-03-02T14:32:12.307Z,4.10
2024-03-02T14:37:14.644Z,5.50
2024-03-02T14:42:16.109Z,4.55
2024-03-02T14:47:17.841Z,5.40
2024-03-02T14:52:19.293Z,4.05
2024-03-02T14:57:20.766Z,4.63
2024-03-02T15:02:22.295Z,4.53
2024-03-02T15:07:23.808Z,4.53
2024-03-02T15:12:25.360Z,3.40
2024-03-02T15:17:27.001Z,3.47
2024-03-02T15:22:31.707Z,3.53
2024-03-02T15:27:33.445Z,3.72
2024-03-02T15:32:37.807Z,3.25
2024-03-02T15:37:39.296Z,3.33
2024-03-02T15:42:40.890Z,3.83
2024-03-02T15:47:43.332Z,3.58
2024-03-02T15:52:44.988Z,4.15
2024-03-02T15:57:51.228Z,3.42
2024-03-02T16:02:53.869Z,4.00
2024-03-02T16:07:55.677Z,3.80
2024-03-02T16:12:59.861Z,3.88
2024-03-02T16:18:01.925Z,3.70
2024-03-02T16:23:03.632Z,3.92
2024-03-02T16:28:09.915Z,4.57
2024-03-02T16:33:14.610Z,4.45
2024-03-02T16:38:16.222Z,3.60
2024-03-02T16:43:17.852Z,4.05
2024-03-02T16:48:19.730Z,3.08
2024-03-02T16:53:22.264Z,3.70
2024-03-02T16:58:24.101Z,3.10
2024-03-02T17:03:25.829Z,3.00
2024-03-02T17:08:27.316Z,3.78
2024-03-02T17:13:28.879Z,3.67
2024-03-02T17:18:30.434Z,3.35
2024-03-02T17:23:32.009Z,3.70
2024-03-02T17:28:34.109Z,3.13
2024-03-02T17:33:35.661Z,4.38
2024-03-02T17:38:37.133Z,48.65
2024-03-02T17:43:42.251Z,29.23
2024-03-02T17:48:43.854Z,37.80
2024-03-02T17:53:45.390Z,26.20
2024-03-02T17:58:47.028Z,6.53
2024-03-02T18:03:48.589Z,13.52
2024-03-02T18:08:50.223Z,7.95
2024-03-02T18:13:51.709Z,4.15
2024-03-02T18:18:53.322Z,4.75
2024-03-02T18:23:54.900Z,10.10
2024-03-02T18:28:56.431Z,5.45
2024-03-02T18:33:58.110Z,4.53
2024-03-02T18:38:59.705Z,4.45
2024-03-02T18:44:01.162Z,5.18
2024-03-02T18:49:02.821Z,4.88
2024-03-02T18:54:04.352Z,4.65
2024-03-02T18:59:05.867Z,4.88
2024-03-02T19:04:07.488Z,4.63
2024-03-02T19:09:09.051Z,4.38
2024-03-02T19:14:10.618Z,4.63
2024-03-02T19:19:12.198Z,4.53
2024-03-02T19:24:13.798Z,4.95
2024-03-02T19:29:15.300Z,5.25
2024-03-02T19:34:17.293Z,4.70
2024-03-02T19:39:19.117Z,4.53
2024-03-02T19:44:20.559Z,4.22
2024-03-02T19:49:22.163Z,5.32
2024-03-02T19:54:23.684Z,4.47
2024-03-02T19:59:25.237Z,4.90
2024-03-02T20:04:26.737Z,5.07
2024-03-02T20:09:28.221Z,4.82
2024-03-02T20:14:29.727Z,4.63
2024-03-02T20:19:31.171Z,4.65
2024-03-02T20:24:32.648Z,4.45
2024-03-02T20:29:34.228Z,5.05
2024-03-02T20:34:35.660Z,4.47
2024-03-02T20:39:37.176Z,4.60
2024-03-02T20:44:38.747Z,10.27
2024-03-02T20:49:40.545Z,5.35
2024-03-02T20:54:42.125Z,7.18
2024-03-02T20:59:43.808Z,32.88
2024-03-02T21:04:48.111Z,13.93
2024-03-02T21:09:49.846Z,6.10
2024-03-02T21:14:51.339Z,4.35
2024-03-02T21:19:53.200Z,4.10
2024-03-02T21:24:54.901Z,4.53
2024-03-02T21:29:56.570Z,4.53
2024-03-02T21:34:58.369Z,4.65
2024-03-02T21:39:59.840Z,4.40
2024-03-02T21:45:01.325Z,5.10
2024-03-02T21:50:03.248Z,5.20
2024-03-02T21:55:04.922Z,4.93
2024-03-02T22:00:07.021Z,4.75
2024-03-02T22:05:08.568Z,5.05
2024-03-02T22:10:10.107Z,4.85
2024-03-02T22:15:11.601Z,16.20
2024-03-02T22:20:13.229Z,17.42
2024-03-02T22:25:14.792Z,13.00
2024-03-02T22:30:16.438Z,18.30
2024-03-02T22:35:18.536Z,6.82
2024-03-02T22:40:21.033Z,7.13
2024-03-02T22:45:22.527Z,17.45
2024-03-02T22:50:24.120Z,7.20
2024-03-02T22:55:25.646Z,10.18
2024-03-02T23:00:27.149Z,11.25
2024-03-02T23:05:29.416Z,30.88
2024-03-02T23:10:30.905Z,24.73
2024-03-02T23:15:32.384Z,14.07
2024-03-02T23:20:33.906Z,12.40
2024-03-02T23:25:35.762Z,13.10
2024-03-02T23:30:39.284Z,17.30
2024-03-02T23:35:40.814Z,11.45
2024-03-02T23:40:42.275Z,7.38
2024-03-02T23:45:43.756Z,7.18
2024-03-02T23:50:45.462Z,7.13
2024-03-02T23:55:52.267Z,8.00
